Time;durP1;ratioP1;P1;durP2;ratioP2;P2;SDS_P1;SDS_P2;PMS_P1;PMS_P2;Temp;Humidity;BMP_temperature;BMP_pressure;BME280_temperature;BME280_humidity;BME280_pressure;Samples;Min_cycle;Max_cycle;Signal;HPM_P1;HPM_P2
2022/04/15 06:00:16;;;;;;;;;;;;;;;;;;6010388;23;20824;-87
2022/04/15 06:02:42;;;;;;;;;;;;;;;;;;4952113;28;20004;-88
2022/04/15 06:05:09;;;;;;;;;;;;;;;;;;4952417;28;19922;-87
2022/04/15 06:07:35;;;;;;;;;;;;;;;;;;4951722;28;20457;-88
2022/04/15 06:10:03;;;;;;;;;;;;;;;;;;4951458;28;20020;-87
2022/04/15 06:12:54;;;;;;;;;;;;;;;;;;4949904;28;20024;-87
2022/04/15 06:15:20;;;;;;;;;;;;;;;;;;4950661;28;19929;-90
2022/04/15 06:17:48;;;;;;;;;;;;;;;;;;4951705;28;20021;-89
2022/04/15 06:20:14;;;;;;;;;;;;;;;;;;4950654;28;20302;-88
2022/04/15 06:22:41;;;;;;;;;;;;;;;;;;4947064;28;20014;-88
2022/04/15 06:25:09;;;;;;;;;;;;;;;;;;4942872;28;19917;-88
2022/04/15 06:27:36;;;;;;;;;;;;;;;;;;4950603;28;19922;-89
2022/04/15 06:30:03;;;;;;;;;;;;;;;;;;4954326;28;20001;-88
2022/04/15 06:32:29;;;;;;;;;;;;;;;;;;4949885;28;20394;-90
2022/04/15 06:34:56;;;;;;;;;;;;;;;;;;4949422;28;19947;-89
2022/04/15 06:37:23;;;;;;;;;;;;;;;;;;4947548;28;19946;-90
2022/04/15 06:39:50;;;;;;;;;;;;;;;;;;4954585;28;19961;-90
2022/04/15 06:42:21;;;;;;;;;;;;;;;;;;4947213;28;19964;-90
2022/04/15 06:44:48;;;;;;;;;;;;;;;;;;4954682;28;19964;-90
2022/04/15 06:47:15;;;;;;;;;;;;;;;;;;4949910;28;19922;-89
2022/04/15 06:49:47;;;;;;;;;;;;;;;;;;4938230;29;19922;-91
2022/04/15 06:52:14;;;;;;;;;;;;;;;;;;4944582;28;19929;-91
2022/04/15 06:54:41;;;;;;;;;;;;;;;;;;4952859;29;20379;-91
2022/04/15 06:57:09;;;;;;;;;;;;;;;;;;4954456;28;19958;-91
2022/04/15 06:59:36;;;;;;;;;;;;;;;;;;4945106;28;19923;-92
2022/04/15 07:02:02;;;;;;;;;;;;;;;;;;4939258;29;20017;-91
2022/04/15 07:04:29;;;;;;;;;;;;;;;;;;4949426;28;19929;-92
2022/04/15 07:06:56;;;;;;;;;;;;;;;;;;4954378;28;19962;-92
2022/04/15 07:09:23;;;;;;;;;;;;;;;;;;4947111;28;19922;-92
2022/04/15 07:11:50;;;;;;;;;;;;;;;;;;4943564;28;19945;-93
2022/04/15 07:14:17;;;;;;;;;;;;;;;;;;4951350;28;20033;-93
2022/04/15 07:16:43;;;;;;;;;;;;;;;;;;4953769;28;19973;-92
2022/04/15 07:19:10;;;;;;;;;;;;;;;;;;4952668;28;19922;-92
2022/04/15 07:21:37;;;;;;;;;;;;;;;;;;4935320;29;19978;-92
2022/04/15 07:24:04;;;;;;;;;;;;;;;;;;4944410;28;19975;-91
2022/04/15 07:26:31;;;;;;;;;;;;;;;;;;4954802;28;19976;-93
2022/04/15 07:28:58;;;;;;;;;;;;;;;;;;4954905;28;20026;-91
2022/04/15 07:31:25;;;;;;;;;;;;;;;;;;4954841;28;19958;-92
2022/04/15 07:33:52;;;;;;;;;;;;;;;;;;4952162;29;21034;-92
2022/04/15 07:39:01;;;;;;;;;;;;;;;;;;4951689;28;20021;-93
2022/04/15 07:41:28;;;;;;;;;;;;;;;;;;4953266;28;20036;-92
2022/04/15 07:43:54;;;;;;;;;;;;;;;;;;4955977;28;19926;-92
2022/04/15 07:46:21;;;;;;;;;;;;;;;;;;4953564;28;19949;-92
2022/04/15 07:48:48;;;;;;;;;;;;;;;;;;4954567;28;19922;-94
2022/04/15 07:51:17;;;;;;;;;;;;;;;;;;4954495;28;20009;-93
2022/04/15 07:53:43;;;;;;;;;;;;;;;;;;4949728;28;19922;-92
2022/04/15 07:56:10;;;;;;;;;;;;;;;;;;4955598;28;19977;-93
2022/04/15 07:58:36;;;;;;;;;;;;;;;;;;4953765;28;19961;-93
2022/04/15 08:01:03;;;;;;;;;;;;;;;;;;4951378;28;19923;-93
2022/04/15 08:03:29;;;;;;;;;;;;;;;;;;4954833;28;19926;-91
2022/04/15 08:05:56;;;;;;;;;;;;;;;;;;4954885;28;19961;-93
2022/04/15 08:08:22;;;;;;;;;;;;;;;;;;4954259;28;20017;-93
2022/04/15 08:10:53;;;;;;;;;;;;;;;;;;4955969;28;19926;-92
2022/04/15 08:13:20;;;;;;;;;;;;;;;;;;4955080;28;19949;-92
2022/04/15 08:15:50;;;;;;;;;;;;;;;;;;4956943;28;19922;-91
2022/04/15 08:18:16;;;;;;;;;;;;;;;;;;4953429;28;19997;-93
2022/04/15 08:20:43;;;;;;;;;;;;;;;;;;4954815;28;19968;-93
2022/04/15 08:23:10;;;;;;;;;;;;;;;;;;4953503;28;19930;-92
2022/04/15 08:25:36;;;;;;;;;;;;;;;;;;4953478;28;19957;-95
2022/04/15 08:28:04;;;;;;;;;;;;;;;;;;4952341;28;19985;-89
2022/04/15 08:30:34;;;;;;;;;;;;;;;;;;4949826;28;19926;-91
2022/04/15 08:33:02;;;;;;;;;;;;;;;;;;4948469;28;19977;-91
2022/04/15 08:35:29;;;;;;;;;;;;;;;;;;4948356;28;19933;-92
2022/04/15 08:37:55;;;;;;;;;;;;;;;;;;4950380;29;20009;-92
2022/04/15 08:40:22;;;;;;;;;;;;;;;;;;4948927;28;19989;-92
2022/04/15 08:42:49;;;;;;;;;;;;;;;;;;4949875;28;20448;-91
2022/04/15 08:45:18;;;;;;;;;;;;;;;;;;4950935;28;20569;-94
2022/04/15 08:47:45;;;;;;;;;;;;;;;;;;4948563;28;19989;-94
2022/04/15 08:50:12;;;;;;;;;;;;;;;;;;4949704;28;19926;-91
2022/04/15 08:52:39;;;;;;;;;;;;;;;;;;4950594;28;19933;-92
2022/04/15 08:55:05;;;;;;;;;;;;;;;;;;4951897;28;20421;-92
2022/04/15 08:57:32;;;;;;;;;;;;;;;;;;4952208;28;20028;-91
2022/04/15 09:00:00;;;;;;;;;;;;;;;;;;4950870;28;19997;-91
2022/04/15 09:02:33;;;;;;;;;;;;;;;;;;4949824;28;19997;-90
2022/04/15 09:05:00;;;;;;;;;;;;;;;;;;4948301;28;20394;-91
2022/04/15 09:07:27;;;;;;;;;;;;;;;;;;4950970;28;19934;-92
2022/04/15 09:09:56;;;;;;;;;;;;;;;;;;4957799;29;19964;-92
2022/04/15 09:12:27;;;;;;;;;;;;;;;;;;4950559;28;19926;-93
2022/04/15 09:14:57;;;;;;;;;;;;;;;;;;4944896;28;20465;-93
2022/04/15 09:17:41;;;;;;;;;;;;;;;;;;4947610;28;19932;-92
2022/04/15 09:20:09;;;;;;;;;;;;;;;;;;4949809;28;19922;-96
2022/04/15 09:22:37;;;;;;;;;;;;;;;;;;4950349;28;19981;-96
2022/04/15 09:25:04;;;;;;;;;;;;;;;;;;4951865;29;19934;-96
2022/04/15 09:27:30;;;;;;;;;;;;;;;;;;4951681;28;19961;-96
2022/04/15 09:30:04;;;;;;;;;;;;;;;;;;4960434;28;19946;-96
2022/04/15 09:32:32;;;;;;;;;;;;;;;;;;4956006;29;19926;-96
2022/04/15 09:35:06;;;;;;;;;;;;;;;;;;4952997;28;19985;-96
2022/04/15 09:37:39;;;;;;;;;;;;;;;;;;4955791;28;19926;-96
2022/04/15 09:40:07;;;;;;;;;;;;;;;;;;4956480;28;19922;-96
2022/04/15 09:42:35;;;;;;;;;;;;;;;;;;4961903;28;19929;-96
2022/04/15 09:45:14;;;;;;;;;;;;;;;;;;4956200;28;19926;-96
2022/04/15 09:47:42;;;;;;;;;;;;;;;;;;4955519;28;19928;-96
2022/04/15 09:50:24;;;;;;;;;;;;;;;;;;4951552;28;19922;-93
2022/04/15 09:52:51;;;;;;;;;;;;;;;;;;4952078;28;19981;-95
2022/04/15 09:55:21;;;;;;;;;;;;;;;;;;4954233;28;19930;-91
2022/04/15 09:57:48;;;;;;;;;;;;;;;;;;4947684;28;19982;-92
2022/04/15 10:00:15;;;;;;;;;;;;;;;;;;4946623;28;20478;-92
2022/04/15 10:02:42;;;;;;;;;;;;;;;;;;4955654;28;19992;-92
2022/04/15 10:05:09;;;;;;;;;;;;;;;;;;4946158;28;19923;-88
2022/04/15 10:07:37;;;;;;;;;;;;;;;;;;4944927;28;19962;-90
2022/04/15 10:10:03;;;;;;;;;;;;;;;;;;4952267;28;19926;-91
2022/04/15 10:12:30;;;;;;;;;;;;;;;;;;4952182;28;20001;-93
2022/04/15 10:14:58;;;;;;;;;;;;;;;;;;4949767;28;20036;-89
2022/04/15 10:17:25;;;;;;;;;;;;;;;;;;4949874;28;19927;-89
2022/04/15 10:20:02;;;;;;;;;;;;;;;;;;5066035;27;20344;-90
2022/04/15 10:22:29;;;;;;;;;;;;;;;;;;5062168;28;19935;-91
2022/04/15 10:24:56;;;;;;;;;;;;;;;;;;5061646;28;20488;-92
2022/04/15 10:27:24;;;;;;;;;;;;;;;;;;5063690;28;20339;-89
2022/04/15 10:30:00;;;;;;;;;;;;;;;;;;5062151;28;19925;-92
2022/04/15 10:32:27;;;;;;;;;;;;;;;;;;5055650;28;19925;-92
2022/04/15 10:34:53;;;;;;;;;;;;;;;;;;5060455;28;19948;-91
2022/04/15 10:37:38;;;;;;;;;;;;;;;;;;5058954;28;19970;-91
2022/04/15 10:40:20;;;;;;;;;;;;;;;;;;5062264;28;19925;-89
2022/04/15 10:42:47;;;;;;;;;;;;;;;;;;5056522;28;19929;-93
2022/04/15 10:45:26;;;;;;;;;;;;;;;;;;5061198;28;19984;-89
2022/04/15 10:47:59;;;;;;;;;;;;;;;;;;5061837;28;19967;-92
2022/04/15 10:50:28;;;;;;;;;;;;;;;;;;5059949;28;19968;-93
2022/04/15 10:53:14;;;;;;;;;;;;;;;;;;5061946;28;20028;-93
2022/04/15 10:55:43;;;;;;;;;;;;;;;;;;5054118;28;19932;-91
2022/04/15 10:58:13;;;;;;;;;;;;;;;;;;5061915;28;19986;-94
2022/04/15 11:03:29;;;;;;;;;;;;;;;;;;5066103;28;20695;-96
2022/04/15 11:05:57;;;;;;;;;;;;;;;;;;5060078;28;19929;-94
2022/04/15 11:08:48;;;;;;;;;;;;;;;;;;5062260;28;19932;-93
2022/04/15 11:11:18;;;;;;;;;;;;;;;;;;5056802;28;20019;-92
2022/04/15 11:13:48;;;;;;;;;;;;;;;;;;5067682;28;19928;-93
2022/04/15 11:16:18;;;;;;;;;;;;;;;;;;5059227;28;20382;-93
2022/04/15 11:19:01;;;;;;;;;;;;;;;;;;5045551;28;20416;-93
2022/04/15 11:21:37;;;;;;;;;;;;;;;;;;5066322;28;19928;-91
2022/04/15 11:24:05;;;;;;;;;;;;;;;;;;5053586;28;20468;-90
2022/04/15 11:26:32;;;;;;;;;;;;;;;;;;5052170;28;20112;-90
2022/04/15 11:29:01;;;;;;;;;;;;;;;;;;5056888;28;19929;-94
2022/04/15 11:31:28;;;;;;;;;;;;;;;;;;5040281;28;20411;-91
2022/04/15 11:33:56;;;;;;;;;;;;;;;;;;5048749;28;19925;-93
2022/04/15 11:36:23;;;;;;;;;;;;;;;;;;5050914;28;19964;-94
2022/04/15 11:38:51;;;;;;;;;;;;;;;;;;5040463;28;19964;-94
2022/04/15 11:41:21;;;;;;;;;;;;;;;;;;5043691;28;19925;-95
2022/04/15 11:44:08;;;;;;;;;;;;;;;;;;5051017;28;19933;-95
2022/04/15 11:46:38;;;;;;;;;;;;;;;;;;5047427;28;19978;-94
2022/04/15 11:49:18;;;;;;;;;;;;;;;;;;5038981;28;19924;-94
2022/04/15 11:51:46;;;;;;;;;;;;;;;;;;5042816;28;20488;-95
2022/04/15 11:54:13;;;;;;;;;;;;;;;;;;5054854;28;19959;-96
2022/04/15 11:56:40;;;;;;;;;;;;;;;;;;5054314;28;19983;-95
2022/04/15 11:59:09;;;;;;;;;;;;;;;;;;5054560;28;20086;-95
2022/04/15 12:01:36;;;;;;;;;;;;;;;;;;5053957;28;19925;-95
2022/04/15 12:04:05;;;;;;;;;;;;;;;;;;5035102;28;19925;-91
2022/04/15 12:06:32;;;;;;;;;;;;;;;;;;5036288;28;19952;-85
2022/04/15 12:08:59;;;;;;;;;;;;;;;;;;5084219;28;19925;-90
2022/04/15 12:11:38;;;;;;;;;;;;;;;;;;5070769;28;19939;-96
2022/04/15 12:14:07;;;;;;;;;;;;;;;;;;5053249;28;20016;-96
2022/04/15 12:16:35;;;;;;;;;;;;;;;;;;5057190;28;19933;-93
2022/04/15 12:19:02;;;;;;;;;;;;;;;;;;5054668;28;20352;-95
2022/04/15 12:21:31;;;;;;;;;;;;;;;;;;5051641;28;19929;-94
2022/04/15 12:24:04;;;;;;;;;;;;;;;;;;5050151;28;19929;-94
2022/04/15 12:26:45;;;;;;;;;;;;;;;;;;5038854;28;19929;-94
2022/04/15 12:32:13;;;;;;;;;;;;;;;;;;5041779;28;19932;-95
2022/04/15 12:34:40;;;;;;;;;;;;;;;;;;5039825;28;19928;-94
2022/04/15 12:37:07;;;;;;;;;;;;;;;;;;5049118;28;19933;-94
2022/04/15 12:39:50;;;;;;;;;;;;;;;;;;5048511;28;19964;-92
2022/04/15 12:42:26;;;;;;;;;;;;;;;;;;5043443;28;19971;-94
2022/04/15 12:44:52;;;;;;;;;;;;;;;;;;5047753;28;19956;-93
2022/04/15 12:47:19;;;;;;;;;;;;;;;;;;5043752;28;19929;-93
2022/04/15 12:49:46;;;;;;;;;;;;;;;;;;5047390;28;19929;-93
2022/04/15 12:52:13;;;;;;;;;;;;;;;;;;5050699;28;19928;-94
2022/04/15 12:54:56;;;;;;;;;;;;;;;;;;5036715;28;20052;-92
2022/04/15 12:57:26;;;;;;;;;;;;;;;;;;5044534;28;20377;-92
2022/04/15 12:59:53;;;;;;;;;;;;;;;;;;5044712;28;20010;-91
2022/04/15 13:02:20;;;;;;;;;;;;;;;;;;5042583;28;20348;-93
2022/04/15 13:04:50;;;;;;;;;;;;;;;;;;5039824;28;19933;-93
2022/04/15 13:07:18;;;;;;;;;;;;;;;;;;5048221;28;19932;-92
2022/04/15 13:09:45;;;;;;;;;;;;;;;;;;5049192;28;19928;-92
2022/04/15 13:12:12;;;;;;;;;;;;;;;;;;5048762;28;19936;-93
2022/04/15 13:14:39;;;;;;;;;;;;;;;;;;5048153;28;19925;-93
2022/04/15 13:17:06;;;;;;;;;;;;;;;;;;5050937;28;19971;-92
2022/04/15 13:19:35;;;;;;;;;;;;;;;;;;5041674;28;20023;-93
2022/04/15 13:22:03;;;;;;;;;;;;;;;;;;5053531;28;20350;-92
2022/04/15 13:24:30;;;;;;;;;;;;;;;;;;5046023;28;19932;-93
2022/04/15 13:26:56;;;;;;;;;;;;;;;;;;5054334;28;20460;-93
2022/04/15 13:29:23;;;;;;;;;;;;;;;;;;5053055;28;19924;-92
2022/04/15 13:31:50;;;;;;;;;;;;;;;;;;5051200;28;19926;-91
2022/04/15 13:34:17;;;;;;;;;;;;;;;;;;5051279;28;19925;-93
2022/04/15 13:36:44;;;;;;;;;;;;;;;;;;5050994;28;19925;-93
2022/04/15 13:39:10;;;;;;;;;;;;;;;;;;5049653;28;20034;-94
2022/04/15 13:41:37;;;;;;;;;;;;;;;;;;5045004;28;20305;-93
2022/04/15 13:44:04;;;;;;;;;;;;;;;;;;5059353;28;20442;-92
2022/04/15 13:46:30;;;;;;;;;;;;;;;;;;5095087;28;19925;-93
2022/04/15 13:48:59;;;;;;;;;;;;;;;;;;5049804;28;20003;-96
2022/04/15 13:51:25;;;;;;;;;;;;;;;;;;5060998;28;19928;-95
2022/04/15 13:56:38;;;;;;;;;;;;;;;;;;5042034;28;19972;-95
2022/04/15 13:59:05;;;;;;;;;;;;;;;;;;5051263;28;20376;-92
2022/04/15 14:01:32;;;;;;;;;;;;;;;;;;5043829;28;19924;-93
2022/04/15 14:04:01;;;;;;;;;;;;;;;;;;5047511;28;19925;-93
2022/04/15 14:06:28;;;;;;;;;;;;;;;;;;5048171;28;19932;-93
2022/04/15 14:08:54;;;;;;;;;;;;;;;;;;5050440;28;20001;-96
2022/04/15 14:11:22;;;;;;;;;;;;;;;;;;5067472;28;19928;-93
2022/04/15 14:13:49;;;;;;;;;;;;;;;;;;5065748;28;20024;-93
2022/04/15 14:16:15;;;;;;;;;;;;;;;;;;5052535;28;19925;-93
2022/04/15 14:18:42;;;;;;;;;;;;;;;;;;5055951;28;19932;-96
2022/04/15 14:21:10;;;;;;;;;;;;;;;;;;5054223;28;19971;-93
2022/04/15 14:23:37;;;;;;;;;;;;;;;;;;5038585;28;19936;-94
2022/04/15 14:26:04;;;;;;;;;;;;;;;;;;5039000;28;19931;-93
2022/04/15 14:28:32;;;;;;;;;;;;;;;;;;5050274;28;19925;-92
2022/04/15 14:30:59;;;;;;;;;;;;;;;;;;5051394;28;19931;-94
2022/04/15 14:33:26;;;;;;;;;;;;;;;;;;5050709;28;19929;-94
2022/04/15 14:35:53;;;;;;;;;;;;;;;;;;5051389;28;19932;-95
2022/04/15 14:38:19;;;;;;;;;;;;;;;;;;5049590;28;19925;-95
2022/04/15 14:40:46;;;;;;;;;;;;;;;;;;5046018;28;19979;-93
2022/04/15 14:43:13;;;;;;;;;;;;;;;;;;5044540;28;20082;-93
2022/04/15 14:45:40;;;;;;;;;;;;;;;;;;5049815;28;19929;-94
2022/04/15 14:48:10;;;;;;;;;;;;;;;;;;5051184;28;19951;-93
2022/04/15 14:50:40;;;;;;;;;;;;;;;;;;5056076;28;19932;-96
2022/04/15 14:53:07;;;;;;;;;;;;;;;;;;5049638;28;19932;-95
2022/04/15 14:55:33;;;;;;;;;;;;;;;;;;5050583;28;19924;-95
2022/04/15 14:58:00;;;;;;;;;;;;;;;;;;5052502;28;19925;-94
2022/04/15 15:00:27;;;;;;;;;;;;;;;;;;5043248;28;19929;-89
2022/04/15 15:02:53;;;;;;;;;;;;;;;;;;5065993;28;21237;-89
2022/04/15 15:05:20;;;;;;;;;;;;;;;;;;5055575;28;19924;-93
2022/04/15 15:07:48;;;;;;;;;;;;;;;;;;5050254;28;19925;-93
2022/04/15 15:10:14;;;;;;;;;;;;;;;;;;5054278;28;20367;-94
2022/04/15 15:12:41;;;;;;;;;;;;;;;;;;5060554;28;19924;-96
2022/04/15 15:15:10;;;;;;;;;;;;;;;;;;5075959;28;19924;-96
2022/04/15 15:21:14;;;;;;;;;;;;;;;;;;5053616;28;20059;-93
2022/04/15 15:29:48;;;;;;;;;;;;;;;;;;5043795;28;19925;-94
2022/04/15 15:31:57;;;;;;;;;;;;;;;;;;5056834;28;19928;-93
2022/04/15 15:34:23;;;;;;;;;;;;;;;;;;5049814;28;19976;-94
2022/04/15 15:36:50;;;;;;;;;;;;;;;;;;5065147;28;19925;-92
2022/04/15 15:39:17;;;;;;;;;;;;;;;;;;5060862;28;19975;-93
2022/04/15 15:41:44;;;;;;;;;;;;;;;;;;5051411;28;19971;-94
2022/04/15 15:44:11;;;;;;;;;;;;;;;;;;5045694;28;19925;-94
2022/04/15 15:46:47;;;;;;;;;;;;;;;;;;5073603;28;19964;-94
2022/04/15 15:49:14;;;;;;;;;;;;;;;;;;5058579;28;19932;-92
2022/04/15 15:51:53;;;;;;;;;;;;;;;;;;5061263;28;20432;-96
2022/04/15 15:54:33;;;;;;;;;;;;;;;;;;5055366;28;19925;-95
2022/04/15 15:57:01;;;;;;;;;;;;;;;;;;5056482;28;19939;-93
2022/04/15 15:59:28;;;;;;;;;;;;;;;;;;5053935;28;19931;-93
2022/04/15 16:01:56;;;;;;;;;;;;;;;;;;5068465;28;19925;-93
2022/04/15 16:04:24;;;;;;;;;;;;;;;;;;5048892;28;20329;-95
2022/04/15 16:06:51;;;;;;;;;;;;;;;;;;5072313;28;19929;-94
2022/04/15 16:09:18;;;;;;;;;;;;;;;;;;5063800;28;20568;-93
2022/04/15 16:11:44;;;;;;;;;;;;;;;;;;5062208;28;20010;-94
2022/04/15 16:14:12;;;;;;;;;;;;;;;;;;5054105;28;20293;-96
2022/04/15 16:16:39;;;;;;;;;;;;;;;;;;5050387;28;19925;-94
2022/04/15 16:19:06;;;;;;;;;;;;;;;;;;5083274;28;19928;-94
2022/04/15 16:21:34;;;;;;;;;;;;;;;;;;5034162;28;20404;-95
2022/04/15 16:24:01;;;;;;;;;;;;;;;;;;5040206;28;19983;-93
2022/04/15 16:26:31;;;;;;;;;;;;;;;;;;5050831;28;20434;-96
2022/04/15 16:28:57;;;;;;;;;;;;;;;;;;5049771;28;19929;-91
2022/04/15 16:31:24;;;;;;;;;;;;;;;;;;5055558;28;20659;-94
2022/04/15 16:33:53;;;;;;;;;;;;;;;;;;5050428;28;19929;-95
2022/04/15 16:36:20;;;;;;;;;;;;;;;;;;5050649;28;20293;-94
2022/04/15 16:38:47;;;;;;;;;;;;;;;;;;5051232;28;19936;-94
2022/04/15 16:41:13;;;;;;;;;;;;;;;;;;5051833;28;19987;-92
2022/04/15 16:43:40;;;;;;;;;;;;;;;;;;5051304;28;19947;-92
2022/04/15 16:46:07;;;;;;;;;;;;;;;;;;5050335;28;20636;-94
2022/04/15 16:48:33;;;;;;;;;;;;;;;;;;5051295;28;19932;-95
2022/04/15 16:51:03;;;;;;;;;;;;;;;;;;5044366;28;19925;-93
2022/04/15 16:53:29;;;;;;;;;;;;;;;;;;5047139;28;19932;-95
2022/04/15 16:58:46;;;;;;;;;;;;;;;;;;5044977;28;19933;-95
2022/04/15 17:01:13;;;;;;;;;;;;;;;;;;5049090;28;20353;-94
2022/04/15 17:03:44;;;;;;;;;;;;;;;;;;5051262;28;19931;-95
2022/04/15 17:06:11;;;;;;;;;;;;;;;;;;5048982;28;19936;-91
2022/04/15 17:08:37;;;;;;;;;;;;;;;;;;5051016;28;19928;-94
2022/04/15 17:11:05;;;;;;;;;;;;;;;;;;5049135;28;19929;-94
2022/04/15 17:13:32;;;;;;;;;;;;;;;;;;5057126;28;20394;-94
2022/04/15 17:16:00;;;;;;;;;;;;;;;;;;5046002;28;19935;-92
2022/04/15 17:18:28;;;;;;;;;;;;;;;;;;5041026;28;20339;-92
2022/04/15 17:20:55;;;;;;;;;;;;;;;;;;5046299;28;19960;-93
2022/04/15 17:23:22;;;;;;;;;;;;;;;;;;5041766;28;19976;-93
2022/04/15 17:25:49;;;;;;;;;;;;;;;;;;5050640;28;19982;-92
2022/04/15 17:28:17;;;;;;;;;;;;;;;;;;5040113;28;19929;-93
2022/04/15 17:30:44;;;;;;;;;;;;;;;;;;5050954;28;19931;-94
2022/04/15 17:33:11;;;;;;;;;;;;;;;;;;5041737;28;19925;-94
2022/04/15 17:35:38;;;;;;;;;;;;;;;;;;5037777;28;19929;-92
2022/04/15 17:38:04;;;;;;;;;;;;;;;;;;5054181;28;20439;-88
2022/04/15 17:40:36;;;;;;;;;;;;;;;;;;5053936;28;19932;-90
2022/04/15 17:43:02;;;;;;;;;;;;;;;;;;5056736;28;19925;-89
2022/04/15 17:45:29;;;;;;;;;;;;;;;;;;5044307;28;19931;-91
2022/04/15 17:47:56;;;;;;;;;;;;;;;;;;5053265;28;19925;-94
2022/04/15 17:50:24;;;;;;;;;;;;;;;;;;5050263;28;19973;-91
2022/04/15 17:52:50;;;;;;;;;;;;;;;;;;5050901;28;19925;-92
2022/04/15 17:55:17;;;;;;;;;;;;;;;;;;5040661;28;20572;-91
2022/04/15 17:57:44;;;;;;;;;;;;;;;;;;5046780;28;19924;-91
2022/04/15 18:00:10;;;;;;;;;;;;;;;;;;5043238;28;19928;-92
2022/04/15 18:02:37;;;;;;;;;;;;;;;;;;5036730;28;19929;-92
2022/04/15 18:05:04;;;;;;;;;;;;;;;;;;5045158;28;20355;-92
2022/04/15 18:07:31;;;;;;;;;;;;;;;;;;5047128;28;19937;-92
2022/04/15 18:09:57;;;;;;;;;;;;;;;;;;5048897;28;19933;-93
2022/04/15 18:12:24;;;;;;;;;;;;;;;;;;5045102;28;21034;-92
2022/04/15 18:14:52;;;;;;;;;;;;;;;;;;5055642;28;19928;-92
2022/04/15 18:17:18;;;;;;;;;;;;;;;;;;5042307;28;20698;-93
2022/04/15 18:19:46;;;;;;;;;;;;;;;;;;5044243;28;19929;-92
2022/04/15 18:22:18;;;;;;;;;;;;;;;;;;5043596;28;19932;-93
2022/04/15 18:24:45;;;;;;;;;;;;;;;;;;5071065;28;20285;-90
2022/04/15 18:27:12;;;;;;;;;;;;;;;;;;5047980;28;19933;-93
2022/04/15 18:29:38;;;;;;;;;;;;;;;;;;5048075;28;20015;-92
2022/04/15 18:32:09;;;;;;;;;;;;;;;;;;5041196;28;19924;-92
2022/04/15 18:34:35;;;;;;;;;;;;;;;;;;5049517;28;19971;-94
2022/04/15 18:37:02;;;;;;;;;;;;;;;;;;5030483;28;19949;-94
2022/04/15 18:39:28;;;;;;;;;;;;;;;;;;5044814;28;19951;-95
2022/04/15 18:41:55;;;;;;;;;;;;;;;;;;5052672;28;19925;-95
2022/04/15 18:44:22;;;;;;;;;;;;;;;;;;5051134;28;19974;-95
2022/04/15 18:47:08;;;;;;;;;;;;;;;;;;5054723;28;19992;-92
2022/04/15 18:52:35;;;;;;;;;;;;;;;;;;5054228;28;19929;-96
2022/04/15 19:28:35;;;;;;;;;;;;;;;;;;5763932;23;19960;-96
2022/04/15 20:03:11;;;;;;;;;;;;;;;;;;5051564;28;19932;-96
2022/04/15 20:05:42;;;;;;;;;;;;;;;;;;5044732;28;19925;-94
2022/04/15 20:08:10;;;;;;;;;;;;;;;;;;5035773;28;20016;-92
2022/04/15 20:10:39;;;;;;;;;;;;;;;;;;5050362;28;19929;-96
2022/04/15 20:13:37;;;;;;;;;;;;;;;;;;5046686;28;19932;-96
2022/04/15 20:19:28;;;;;;;;;;;;;;;;;;5043947;28;20297;-94
2022/04/15 20:22:04;;;;;;;;;;;;;;;;;;5032274;28;19952;-95
2022/04/15 20:24:41;;;;;;;;;;;;;;;;;;5016950;28;19961;-93
2022/04/15 20:27:09;;;;;;;;;;;;;;;;;;5026190;28;19932;-95
2022/04/15 20:30:06;;;;;;;;;;;;;;;;;;5033549;28;20340;-96
2022/04/15 20:32:37;;;;;;;;;;;;;;;;;;5036429;28;19948;-94
2022/04/15 20:37:50;;;;;;;;;;;;;;;;;;5315165;23;19909;-96
2022/04/15 20:54:13;;;;;;;;;;;;;;;;;;5447443;22;19926;-94
2022/04/15 20:57:04;;;;;;;;;;;;;;;;;;5007351;28;19926;-95
2022/04/15 21:00:22;;;;;;;;;;;;;;;;;;4923217;28;19950;-95
2022/04/15 21:06:03;;;;;;;;;;;;;;;;;;5166683;22;20020;-95
2022/04/15 21:08:53;;;;;;;;;;;;;;;;;;5035452;28;19929;-94
2022/04/15 21:22:59;;;;;;;;;;;;;;;;;;5301880;23;19929;-94
2022/04/15 21:25:26;;;;;;;;;;;;;;;;;;5010886;28;19979;-92
2022/04/15 21:27:53;;;;;;;;;;;;;;;;;;5016943;28;19932;-93
2022/04/15 21:30:20;;;;;;;;;;;;;;;;;;5003449;28;19999;-94
2022/04/15 21:32:46;;;;;;;;;;;;;;;;;;5014650;28;19965;-94
2022/04/15 21:35:14;;;;;;;;;;;;;;;;;;5014205;28;19926;-93
2022/04/15 21:37:40;;;;;;;;;;;;;;;;;;5007710;28;19929;-94
2022/04/15 21:40:16;;;;;;;;;;;;;;;;;;5004173;28;19926;-94
2022/04/15 21:42:59;;;;;;;;;;;;;;;;;;5029555;28;19992;-96
2022/04/15 21:45:53;;;;;;;;;;;;;;;;;;4933188;28;19925;-96
2022/04/15 21:48:47;;;;;;;;;;;;;;;;;;4923990;29;19954;-94
2022/04/15 21:53:59;;;;;;;;;;;;;;;;;;4952362;28;19976;-91
2022/04/15 21:56:26;;;;;;;;;;;;;;;;;;4952016;29;19930;-91
2022/04/15 21:58:52;;;;;;;;;;;;;;;;;;4952457;28;19966;-92
2022/04/15 22:01:20;;;;;;;;;;;;;;;;;;4952749;28;19938;-91
2022/04/15 22:03:47;;;;;;;;;;;;;;;;;;4950980;29;19931;-89
2022/04/15 22:06:14;;;;;;;;;;;;;;;;;;4956092;28;19955;-92
2022/04/15 22:08:41;;;;;;;;;;;;;;;;;;4954443;28;19981;-93
2022/04/15 22:11:08;;;;;;;;;;;;;;;;;;4955804;28;19927;-94
2022/04/15 22:13:35;;;;;;;;;;;;;;;;;;4967035;28;20418;-93
2022/04/15 22:16:03;;;;;;;;;;;;;;;;;;4976498;28;20434;-95
2022/04/15 22:18:36;;;;;;;;;;;;;;;;;;4939588;29;19954;-92
2022/04/15 22:21:14;;;;;;;;;;;;;;;;;;4951122;28;19927;-96
2022/04/15 22:23:41;;;;;;;;;;;;;;;;;;4958855;28;19946;-94
2022/04/15 22:26:21;;;;;;;;;;;;;;;;;;4962012;28;19958;-95
2022/04/15 22:29:25;;;;;;;;;;;;;;;;;;4914086;29;19932;-95
2022/04/15 22:31:58;;;;;;;;;;;;;;;;;;4961929;28;20438;-96
2022/04/15 22:34:30;;;;;;;;;;;;;;;;;;4952807;28;19934;-94
2022/04/15 22:36:58;;;;;;;;;;;;;;;;;;4954573;29;20386;-93
2022/04/15 22:39:25;;;;;;;;;;;;;;;;;;4990803;28;20011;-92
2022/04/15 22:41:52;;;;;;;;;;;;;;;;;;5003588;28;19929;-92
2022/04/15 22:44:20;;;;;;;;;;;;;;;;;;5011585;28;19930;-93
2022/04/15 22:46:48;;;;;;;;;;;;;;;;;;5012141;28;19925;-93
2022/04/15 22:49:15;;;;;;;;;;;;;;;;;;5012180;28;19976;-93
2022/04/15 22:51:42;;;;;;;;;;;;;;;;;;5015576;28;19936;-94
2022/04/15 22:57:07;;;;;;;;;;;;;;;;;;5014215;28;19932;-94
2022/04/15 22:57:08;;;;;;;;;;;;;;;;;;5014977;28;19925;-92
2022/04/15 22:59:35;;;;;;;;;;;;;;;;;;5014840;28;20020;-94
